Time;durP1;ratioP1;P1;durP2;ratioP2;P2;SDS_P1;SDS_P2;PMS_P1;PMS_P2;Temp;Humidity;BMP_temperature;BMP_pressure;BME280_temperature;BME280_humidity;BME280_pressure;Samples;Min_cycle;Max_cycle;Signal;HPM_P1;HPM_P2
2022/12/14 00:00:41;;;;;;;45.95;23.50;;;;;;;-5.45;100.00;91439.53;2065660;28;20449;-84
2022/12/14 00:01:42;;;;;;;41.95;22.48;;;;;;;-5.51;100.00;91433.91;2073570;28;20554;-85
2022/12/14 00:02:43;;;;;;;41.70;21.85;;;;;;;-5.59;100.00;91437.53;2073411;28;20441;-84
2022/12/14 00:03:45;;;;;;;42.78;22.55;;;;;;;-5.58;100.00;91428.63;2065559;28;20018;-85
2022/12/14 00:04:46;;;;;;;41.60;22.00;;;;;;;-5.33;100.00;91418.44;2076651;28;20120;-84
2022/12/14 00:05:47;;;;;;;41.03;22.00;;;;;;;-5.49;100.00;91420.53;2081862;28;20092;-83
2022/12/14 00:06:48;;;;;;;42.15;21.42;;;;;;;-5.53;100.00;91424.94;2081605;28;20025;-84
2022/12/14 00:07:49;;;;;;;42.05;22.35;;;;;;;-5.39;100.00;91419.91;2089876;28;20443;-83
2022/12/14 00:08:52;;;;;;;39.90;22.58;;;;;;;-5.32;100.00;91428.50;2089228;28;20029;-85
2022/12/14 00:09:53;;;;;;;40.53;21.45;;;;;;;-5.27;100.00;91418.88;2078980;28;20026;-85
2022/12/14 00:10:54;;;;;;;45.08;23.90;;;;;;;-5.43;100.00;91419.09;2066620;28;20442;-83
2022/12/14 00:11:55;;;;;;;40.60;22.77;;;;;;;-5.48;100.00;91419.44;2068964;28;20679;-83
2022/12/14 00:12:56;;;;;;;44.83;23.08;;;;;;;-5.55;100.00;91419.34;2069490;28;20652;-84
2022/12/14 00:14:00;;;;;;;46.47;24.38;;;;;;;-5.62;100.00;91418.19;2070338;28;20056;-84
2022/12/14 00:15:01;;;;;;;42.67;23.10;;;;;;;-5.51;100.00;91422.75;2065488;28;20524;-85
2022/12/14 00:16:16;;;;;;;44.25;24.52;;;;;;;-5.44;100.00;91426.19;2073164;28;20475;-84
2022/12/14 00:17:17;;;;;;;45.40;23.05;;;;;;;-5.45;100.00;91424.66;2066949;28;20019;-84
2022/12/14 00:18:18;;;;;;;42.80;23.05;;;;;;;-5.36;100.00;91416.56;2057381;28;20836;-85
2022/12/14 00:19:19;;;;;;;43.75;22.52;;;;;;;-5.38;100.00;91424.72;2064818;28;20113;-84
2022/12/14 00:20:20;;;;;;;41.63;23.27;;;;;;;-5.29;100.00;91428.91;2069713;28;20488;-85
2022/12/14 00:21:22;;;;;;;42.90;23.23;;;;;;;-5.38;100.00;91421.38;2081413;28;20104;-84
2022/12/14 00:22:23;;;;;;;41.35;22.65;;;;;;;-5.19;100.00;91420.44;2065346;28;20112;-83
2022/12/14 00:23:24;;;;;;;42.05;23.33;;;;;;;-5.26;100.00;91420.38;2073261;28;20034;-84
2022/12/14 00:24:25;;;;;;;40.45;23.13;;;;;;;-5.27;100.00;91431.88;2081261;28;20029;-84
2022/12/14 00:25:26;;;;;;;42.17;23.42;;;;;;;-5.34;100.00;91412.50;2087394;28;20016;-84
2022/12/14 00:26:30;;;;;;;41.03;22.65;;;;;;;-5.33;100.00;91415.84;2089239;28;20028;-84
2022/12/14 00:27:31;;;;;;;42.25;21.40;;;;;;;-5.33;100.00;91427.00;2089703;28;20028;-84
2022/12/14 00:28:32;;;;;;;39.63;22.40;;;;;;;-5.38;100.00;91422.13;2081473;28;20022;-84
2022/12/14 00:29:32;;;;;;;39.10;23.00;;;;;;;-5.41;100.00;91414.28;2065004;28;20059;-83
2022/12/14 00:30:33;;;;;;;41.72;23.00;;;;;;;-5.43;100.00;91412.03;2073081;28;20026;-83
2022/12/14 00:31:35;;;;;;;42.80;23.67;;;;;;;-5.45;100.00;91418.69;2073237;28;20125;-84
2022/12/14 00:32:36;;;;;;;39.72;22.60;;;;;;;-5.47;100.00;91419.06;2066898;28;20022;-85
2022/12/14 00:33:37;;;;;;;38.15;21.63;;;;;;;-5.41;100.00;91416.88;2069325;28;20049;-86
2022/12/14 00:34:38;;;;;;;36.80;21.67;;;;;;;-5.29;100.00;91418.50;2073313;28;20056;-84
2022/12/14 00:35:39;;;;;;;42.55;24.27;;;;;;;-5.19;100.00;91429.00;2073433;28;20025;-84
2022/12/14 00:36:40;;;;;;;40.03;22.42;;;;;;;-5.20;100.00;91417.09;2081814;28;20025;-85
2022/12/14 00:37:42;;;;;;;42.20;23.48;;;;;;;-5.19;100.00;91425.63;2081246;28;20112;-85
2022/12/14 00:38:43;;;;;;;42.67;22.70;;;;;;;-5.15;100.00;91426.41;2073505;28;20030;-84
2022/12/14 00:39:44;;;;;;;43.92;22.65;;;;;;;-5.19;100.00;91421.19;2081175;28;20029;-85
2022/12/14 00:40:45;;;;;;;41.97;23.25;;;;;;;-5.27;100.00;91424.06;2083363;28;20045;-83
2022/12/14 00:41:45;;;;;;;41.05;23.10;;;;;;;-5.19;100.00;91425.63;2065372;28;20114;-84
2022/12/14 00:42:46;;;;;;;40.72;22.92;;;;;;;-5.14;100.00;91428.66;2065431;28;20480;-84
2022/12/14 00:43:47;;;;;;;41.42;23.17;;;;;;;-5.20;100.00;91421.53;2081702;28;20022;-85
2022/12/14 00:44:48;;;;;;;41.17;23.15;;;;;;;-5.20;100.00;91421.53;2089275;28;20083;-84
2022/12/14 00:45:50;;;;;;;41.38;23.13;;;;;;;-5.17;100.00;91421.56;2081294;28;20030;-84
2022/12/14 00:46:51;;;;;;;42.40;23.25;;;;;;;-5.16;100.00;91417.13;2081689;28;20694;-84
2022/12/14 00:47:52;;;;;;;43.13;23.38;;;;;;;-5.15;100.00;91411.53;2081610;28;20017;-85
2022/12/14 00:48:53;;;;;;;44.67;22.98;;;;;;;-5.15;100.00;91410.78;2073299;28;20157;-84
2022/12/14 00:49:54;;;;;;;45.45;23.60;;;;;;;-5.23;100.00;91407.38;2075066;28;20038;-83
2022/12/14 00:50:55;;;;;;;38.80;21.92;;;;;;;-5.09;100.00;91412.72;2083406;28;20076;-84
2022/12/14 00:51:56;;;;;;;43.47;23.83;;;;;;;-5.08;100.00;91416.81;2081502;28;20390;-84
2022/12/14 00:52:57;;;;;;;42.17;23.83;;;;;;;-5.10;100.00;91413.81;2081349;28;20032;-85
2022/12/14 00:53:58;;;;;;;41.53;23.30;;;;;;;-5.12;100.00;91416.03;2081598;28;20029;-84
2022/12/14 00:54:59;;;;;;;41.60;24.00;;;;;;;-5.07;100.00;91415.69;2089489;28;20029;-84
2022/12/14 00:56:05;;;;;;;42.53;23.48;;;;;;;-5.16;100.00;91409.31;2081144;28;20025;-84
2022/12/14 00:57:06;;;;;;;40.78;22.58;;;;;;;-5.08;100.00;91395.97;2080886;28;20025;-85
2022/12/14 00:58:09;;;;;;;41.58;22.38;;;;;;;-5.15;100.00;91401.13;2081207;28;20079;-84
2022/12/14 00:59:11;;;;;;;38.28;21.48;;;;;;;-5.04;100.00;91403.09;2073550;28;20453;-85
2022/12/14 01:00:25;;;;;;;44.28;23.15;;;;;;;-5.10;100.00;91403.38;2065214;28;20030;-84
2022/12/14 01:01:25;;;;;;;43.55;22.88;;;;;;;-5.12;100.00;91407.47;2076979;28;20101;-84
2022/12/14 01:02:26;;;;;;;40.70;22.38;;;;;;;-5.03;100.00;91409.78;2072929;28;20054;-84
2022/12/14 01:03:28;;;;;;;40.40;21.15;;;;;;;-4.85;100.00;91405.44;2072913;28;20033;-85
2022/12/14 01:04:29;;;;;;;39.92;22.80;;;;;;;-4.96;100.00;91408.00;2073407;28;20030;-84
2022/12/14 01:05:32;;;;;;;37.28;21.52;;;;;;;-4.93;100.00;91409.09;2073056;28;20022;-84
2022/12/14 01:06:33;;;;;;;38.85;22.33;;;;;;;-5.03;100.00;91407.91;2081923;28;20040;-84
2022/12/14 01:07:34;;;;;;;39.63;22.15;;;;;;;-4.96;100.00;91409.81;2089673;28;20454;-85
2022/12/14 01:08:35;;;;;;;39.15;21.42;;;;;;;-4.87;100.00;91405.06;2081322;28;20025;-84
2022/12/14 01:09:36;;;;;;;44.30;23.17;;;;;;;-4.87;100.00;91408.44;2073020;28;20032;-85
2022/12/14 01:10:39;;;;;;;42.95;23.05;;;;;;;-5.03;100.00;91407.91;2073467;28;20132;-84
2022/12/14 01:11:40;;;;;;;41.63;22.60;;;;;;;-5.12;100.00;91410.81;2081376;28;20029;-84
2022/12/14 01:12:41;;;;;;;42.53;23.00;;;;;;;-5.11;100.00;91409.72;2073243;28;20033;-85
2022/12/14 01:13:43;;;;;;;41.85;22.40;;;;;;;-5.12;100.00;91415.28;2081487;28;20108;-84
2022/12/14 01:14:45;;;;;;;42.25;24.50;;;;;;;-5.02;100.00;91406.06;2080907;28;20055;-85
2022/12/14 01:15:46;;;;;;;42.45;22.65;;;;;;;-4.95;100.00;91409.47;2081187;28;20059;-84
2022/12/14 01:16:47;;;;;;;39.17;21.40;;;;;;;-4.94;100.00;91405.75;2089471;28;20102;-85
2022/12/14 01:17:50;;;;;;;43.17;21.88;;;;;;;-4.90;100.00;91400.56;2081361;28;20051;-84
2022/12/14 01:18:51;;;;;;;38.63;22.27;;;;;;;-4.95;100.00;91408.72;2073391;28;20503;-84
2022/12/14 01:19:52;;;;;;;37.35;21.38;;;;;;;-5.06;100.00;91398.22;2081030;28;20063;-85
2022/12/14 01:21:14;;;;;;;38.50;22.73;;;;;;;-4.98;100.00;91396.41;2097858;28;20032;-84
2022/12/14 01:22:15;;;;;;;38.22;20.45;;;;;;;-4.92;100.00;91397.56;2089380;28;20028;-85
2022/12/14 01:23:16;;;;;;;37.90;20.13;;;;;;;-4.90;100.00;91396.13;2073251;28;20534;-85
2022/12/14 01:24:17;;;;;;;38.70;21.73;;;;;;;-4.94;100.00;91394.59;2065305;28;20022;-85
2022/12/14 01:25:18;;;;;;;43.85;22.92;;;;;;;-4.84;100.00;91394.66;2072877;28;20026;-85
2022/12/14 01:26:20;;;;;;;39.80;22.65;;;;;;;-4.93;100.00;91386.41;2081218;28;20036;-84
2022/12/14 01:27:21;;;;;;;39.10;21.48;;;;;;;-4.91;100.00;91386.06;2081353;28;20079;-85
2022/12/14 01:28:22;;;;;;;34.95;18.85;;;;;;;-4.77;100.00;91385.41;2081343;28;20495;-85
2022/12/14 01:29:23;;;;;;;36.17;18.83;;;;;;;-4.85;100.00;91397.63;2081164;28;20032;-84
2022/12/14 01:30:24;;;;;;;33.30;18.30;;;;;;;-4.74;100.00;91392.47;2081426;28;20025;-84
2022/12/14 01:31:28;;;;;;;37.92;21.02;;;;;;;-4.86;100.00;91393.53;2081134;28;20856;-85
2022/12/14 01:32:29;;;;;;;37.85;21.77;;;;;;;-4.88;100.00;91388.66;2066229;28;20026;-83
2022/12/14 01:33:30;;;;;;;40.53;21.02;;;;;;;-4.95;100.00;91396.44;2072931;28;20845;-84
2022/12/14 01:34:31;;;;;;;42.05;23.02;;;;;;;-4.96;100.00;91402.00;2081212;28;20444;-85
2022/12/14 01:35:32;;;;;;;41.38;22.20;;;;;;;-5.03;100.00;91400.09;2081379;28;20026;-83
2022/12/14 01:36:35;;;;;;;39.88;20.63;;;;;;;-5.00;100.00;91394.19;2072895;28;20525;-85
2022/12/14 01:37:36;;;;;;;43.38;23.40;;;;;;;-5.00;100.00;91402.00;2073029;28;20038;-84
2022/12/14 01:38:37;;;;;;;41.40;23.13;;;;;;;-5.02;100.00;91398.25;2080890;28;20448;-84
2022/12/14 01:39:38;;;;;;;41.97;23.33;;;;;;;-5.09;100.00;91397.09;2073031;28;20034;-84
2022/12/14 01:40:39;;;;;;;43.50;24.48;;;;;;;-5.10;100.00;91394.84;2089448;28;20074;-84
2022/12/14 01:41:48;;;;;;;39.97;22.55;;;;;;;-5.12;100.00;91394.47;2089156;28;20036;-84
2022/12/14 01:42:49;;;;;;;41.25;23.38;;;;;;;-5.07;100.00;91389.66;2090450;28;20029;-84
2022/12/14 01:44:13;;;;;;;38.25;22.13;;;;;;;-5.15;100.00;91401.13;2081049;28;20080;-86
2022/12/14 01:45:20;;;;;;;38.15;20.73;;;;;;;-5.14;100.00;91388.84;2056000;28;20074;-84
2022/12/14 01:46:33;;;;;;;40.45;21.88;;;;;;;-4.99;100.00;91392.31;2081896;28;20436;-84
2022/12/14 01:47:41;;;;;;;42.90;23.63;;;;;;;-5.07;100.00;91384.44;2090866;28;20451;-84
2022/12/14 01:48:43;;;;;;;40.08;22.08;;;;;;;-4.97;100.00;91384.88;2081242;28;20025;-84
2022/12/14 01:49:54;;;;;;;41.85;22.38;;;;;;;-4.85;100.00;91392.41;2080995;28;20025;-85
2022/12/14 01:50:56;;;;;;;39.95;22.45;;;;;;;-5.02;100.00;91393.78;2082515;28;20474;-85
2022/12/14 01:52:13;;;;;;;41.75;22.83;;;;;;;-4.94;100.00;91387.53;2070317;28;21007;-85
2022/12/14 01:53:20;;;;;;;41.10;22.73;;;;;;;-5.00;100.00;91388.19;2083036;28;20502;-85
2022/12/14 01:54:23;;;;;;;40.58;23.80;;;;;;;-5.11;100.00;91391.47;2075532;28;20444;-85
2022/12/14 01:55:32;;;;;;;40.85;22.38;;;;;;;-5.06;100.00;91387.78;2073417;28;20436;-84
2022/12/14 01:56:36;;;;;;;41.75;22.38;;;;;;;-5.07;100.00;91384.44;2073953;28;20049;-84
2022/12/14 01:57:48;;;;;;;40.97;23.38;;;;;;;-5.04;100.00;91384.84;2073310;28;20053;-85
2022/12/14 01:58:49;;;;;;;42.45;24.10;;;;;;;-5.21;100.00;91381.00;2082433;28;20472;-84
2022/12/14 01:59:50;;;;;;;37.25;21.30;;;;;;;-5.14;100.00;91384.38;2073066;28;20022;-86
2022/12/14 02:00:54;;;;;;;42.67;23.42;;;;;;;-5.00;100.00;91388.19;2072998;28;20459;-84
2022/12/14 02:01:56;;;;;;;39.50;23.17;;;;;;;-5.06;100.00;91385.19;2081829;28;20432;-84
2022/12/14 02:02:57;;;;;;;45.05;25.15;;;;;;;-5.08;100.00;91382.97;2080299;28;20448;-85
2022/12/14 02:03:59;;;;;;;40.95;24.15;;;;;;;-5.14;100.00;91389.59;2072770;28;20445;-84
2022/12/14 02:05:03;;;;;;;46.28;25.30;;;;;;;-5.07;100.00;91376.63;2080811;28;20021;-84
2022/12/14 02:06:29;;;;;;;43.55;25.05;;;;;;;-5.16;100.00;91381.41;2081630;28;20033;-84
2022/12/14 02:07:31;;;;;;;45.17;23.05;;;;;;;-5.18;100.00;91380.25;2084269;28;20501;-84
2022/12/14 02:08:32;;;;;;;40.72;23.15;;;;;;;-5.11;100.00;91367.28;2072500;28;20061;-85
2022/12/14 02:09:38;;;;;;;44.42;24.27;;;;;;;-4.88;100.00;91377.50;2073108;28;20029;-84
2022/12/14 02:10:40;;;;;;;42.50;24.27;;;;;;;-5.01;100.00;91371.09;2074318;28;20117;-85
2022/12/14 02:12:01;;;;;;;41.85;23.33;;;;;;;-4.94;100.00;91378.97;2081195;28;20490;-85
2022/12/14 02:13:17;;;;;;;43.47;23.58;;;;;;;-4.91;100.00;91371.19;2083615;28;20478;-85
2022/12/14 02:14:18;;;;;;;41.15;24.05;;;;;;;-5.11;100.00;91370.66;2084721;28;20436;-84
2022/12/14 02:15:19;;;;;;;46.40;24.55;;;;;;;-5.09;100.00;91363.22;2080845;28;20432;-85
2022/12/14 02:16:20;;;;;;;43.20;24.00;;;;;;;-5.11;100.00;91364.69;2089435;28;20021;-85
2022/12/14 02:17:21;;;;;;;42.88;24.90;;;;;;;-5.13;100.00;91362.47;2089193;28;20072;-85
2022/12/14 02:18:28;;;;;;;42.80;23.33;;;;;;;-5.20;100.00;91362.41;2080902;28;20034;-84
2022/12/14 02:19:29;;;;;;;50.15;25.75;;;;;;;-5.19;100.00;91370.94;2081735;28;20033;-85
2022/12/14 02:20:39;;;;;;;45.88;25.30;;;;;;;-5.14;100.00;91360.19;2073094;28;20053;-83
2022/12/14 02:22:06;;;;;;;45.53;25.42;;;;;;;-5.18;100.00;91352.38;2083586;28;20557;-83
2022/12/14 02:23:26;;;;;;;43.13;24.08;;;;;;;-5.07;100.00;91360.25;2089311;28;20025;-85
2022/12/14 02:24:39;;;;;;;46.58;25.83;;;;;;;-4.97;100.00;91361.44;2091631;28;20471;-86
2022/12/14 02:25:48;;;;;;;44.08;23.83;;;;;;;-5.04;100.00;91364.75;2082605;28;20025;-85
2022/12/14 02:27:05;;;;;;;43.67;23.48;;;;;;;-4.75;100.00;91359.72;2083505;28;20032;-85
2022/12/14 02:28:18;;;;;;;43.08;24.02;;;;;;;-4.94;100.00;91356.25;2091187;28;20025;-84
2022/12/14 02:29:56;;;;;;;42.72;25.33;;;;;;;-5.04;100.00;91361.41;2082123;28;20033;-85
2022/12/14 02:31:23;;;;;;;42.60;23.88;;;;;;;-5.00;100.00;91356.94;2091159;28;20028;-85
2022/12/14 02:32:27;;;;;;;37.33;22.90;;;;;;;-5.00;100.00;91360.31;2088448;28;20075;-86
2022/12/14 02:34:12;;;;;;;40.00;23.67;;;;;;;-4.95;100.00;91359.97;2065056;28;20030;-83
2022/12/14 02:35:31;;;;;;;42.10;23.75;;;;;;;-4.91;100.00;91358.16;2076487;28;20040;-84
2022/12/14 02:36:44;;;;;;;42.20;23.17;;;;;;;-4.93;100.00;91351.78;2077933;28;20129;-85
2022/12/14 02:37:58;;;;;;;45.40;24.00;;;;;;;-5.08;100.00;91363.97;2074209;28;20116;-85
2022/12/14 02:39:16;;;;;;;43.47;24.42;;;;;;;-5.13;100.00;91359.84;2074479;28;20022;-85
2022/12/14 02:40:26;;;;;;;43.40;23.98;;;;;;;-5.11;100.00;91359.47;2069439;28;20027;-84
2022/12/14 02:41:42;;;;;;;43.45;24.40;;;;;;;-5.06;100.00;91352.06;2074108;28;20037;-85
2022/12/14 02:43:09;;;;;;;42.47;23.45;;;;;;;-4.86;100.00;91352.59;2076923;28;20581;-84
2022/12/14 02:44:18;;;;;;;43.70;24.13;;;;;;;-4.92;100.00;91359.22;2076119;28;20029;-85
2022/12/14 02:45:38;;;;;;;46.65;27.00;;;;;;;-4.72;100.00;91356.41;2075068;28;20061;-85
2022/12/14 02:46:50;;;;;;;38.90;22.92;;;;;;;-4.79;100.00;91349.28;2084851;28;20029;-84
2022/12/14 02:47:59;;;;;;;45.38;25.00;;;;;;;-4.82;100.00;91339.59;2095997;28;20023;-83
2022/12/14 02:49:20;;;;;;;39.65;23.67;;;;;;;-4.85;100.00;91353.34;2073855;28;20022;-84
2022/12/14 02:50:28;;;;;;;44.70;24.58;;;;;;;-4.99;100.00;91340.97;2077873;28;20062;-85
2022/12/14 02:51:49;;;;;;;46.13;24.10;;;;;;;-4.86;100.00;91346.63;2081784;28;20032;-84
2022/12/14 02:52:50;;;;;;;42.28;25.00;;;;;;;-4.95;100.00;91346.94;2075359;28;20025;-83
2022/12/14 02:54:27;;;;;;;45.28;24.85;;;;;;;-4.98;100.00;91352.88;2064584;28;20536;-84
2022/12/14 02:55:52;;;;;;;42.92;23.92;;;;;;;-4.98;100.00;91339.13;2072668;28;20040;-84
2022/12/14 02:57:02;;;;;;;42.17;23.17;;;;;;;-5.01;100.00;91337.22;2084392;28;20033;-84
2022/12/14 02:58:22;;;;;;;46.33;24.35;;;;;;;-4.93;100.00;91349.94;2091204;28;20034;-86
2022/12/14 02:59:23;;;;;;;46.58;24.60;;;;;;;-5.06;100.00;91344.25;2074928;28;20444;-84
2022/12/14 03:00:28;;;;;;;47.00;25.15;;;;;;;-5.07;100.00;91331.59;2073109;28;20471;-84
2022/12/14 03:01:29;;;;;;;50.65;27.30;;;;;;;-5.15;100.00;91340.47;2073206;28;20025;-84
2022/12/14 03:02:36;;;;;;;48.33;25.98;;;;;;;-5.14;100.00;91339.38;2082540;28;20076;-85
2022/12/14 03:03:37;;;;;;;44.63;26.90;;;;;;;-5.11;100.00;91339.41;2097384;28;20478;-84
2022/12/14 03:04:44;;;;;;;44.53;26.58;;;;;;;-5.07;100.00;91340.16;2080308;28;20116;-84
2022/12/14 03:05:59;;;;;;;51.00;27.67;;;;;;;-5.03;100.00;91344.66;2082062;28;20104;-84
2022/12/14 03:07:23;;;;;;;49.17;27.48;;;;;;;-5.08;100.00;91338.69;2088726;28;20029;-85
2022/12/14 03:08:28;;;;;;;50.33;26.20;;;;;;;-5.09;100.00;91352.81;2080362;28;20100;-84
2022/12/14 03:09:30;;;;;;;52.95;27.40;;;;;;;-5.12;100.00;91335.31;2073849;28;20022;-84
2022/12/14 03:10:54;;;;;;;52.35;28.30;;;;;;;-5.07;100.00;91331.59;2080708;28;20063;-84
2022/12/14 03:12:09;;;;;;;41.63;24.85;;;;;;;-4.93;100.00;91344.72;2075548;28;20116;-85
2022/12/14 03:13:35;;;;;;;47.78;27.48;;;;;;;-5.09;100.00;91339.78;2076312;28;20452;-85
2022/12/14 03:14:44;;;;;;;45.67;25.67;;;;;;;-5.01;100.00;91340.56;2075918;28;20045;-83
2022/12/14 03:15:52;;;;;;;48.25;27.67;;;;;;;-5.09;100.00;91339.78;2075026;28;20022;-84
2022/12/14 03:17:04;;;;;;;52.45;28.05;;;;;;;-5.10;100.00;91329.72;2073588;28;20036;-84
2022/12/14 03:18:07;;;;;;;47.33;26.42;;;;;;;-5.13;100.00;91333.81;2076268;28;20022;-84
2022/12/14 03:19:42;;;;;;;50.63;27.58;;;;;;;-5.17;100.00;91338.25;2080928;28;20055;-85
2022/12/14 03:20:47;;;;;;;48.88;27.55;;;;;;;-5.23;100.00;91331.84;2085962;28;20036;-85
2022/12/14 03:21:54;;;;;;;49.20;28.15;;;;;;;-5.19;100.00;91331.88;2091127;28;20390;-83
2022/12/14 03:23:08;;;;;;;51.55;26.83;;;;;;;-5.09;100.00;91329.38;2091135;28;20024;-84
2022/12/14 03:24:12;;;;;;;47.40;26.58;;;;;;;-5.01;100.00;91330.16;2083912;28;20028;-85
2022/12/14 03:25:20;;;;;;;50.42;27.52;;;;;;;-5.09;100.00;91320.81;2091755;28;20483;-84
2022/12/14 03:26:29;;;;;;;49.70;26.35;;;;;;;-5.13;100.00;91317.44;2090340;28;20522;-82
2022/12/14 03:27:34;;;;;;;54.17;27.20;;;;;;;-5.21;100.00;91316.63;2083159;28;20113;-83
2022/12/14 03:28:40;;;;;;;48.88;27.38;;;;;;;-5.01;100.00;91321.59;2074525;28;20387;-84
2022/12/14 03:29:47;;;;;;;50.63;28.35;;;;;;;-5.14;100.00;91314.06;2082330;28;20033;-84
2022/12/14 03:30:58;;;;;;;57.40;28.65;;;;;;;-5.19;100.00;91321.47;2091049;28;20074;-84
2022/12/14 03:32:07;;;;;;;49.00;27.67;;;;;;;-5.26;100.00;91322.19;2082181;28;20502;-85
2022/12/14 03:33:14;;;;;;;52.95;27.63;;;;;;;-5.32;100.00;91308.72;2082602;28;20021;-85
2022/12/14 03:34:19;;;;;;;51.28;28.80;;;;;;;-5.10;100.00;91322.66;2081990;28;20029;-85
2022/12/14 03:35:27;;;;;;;45.20;27.17;;;;;;;-5.16;100.00;91316.28;2074983;28;20120;-84
2022/12/14 03:36:49;;;;;;;50.03;26.80;;;;;;;-5.12;100.00;91317.06;2083088;28;20017;-83
2022/12/14 03:38:21;;;;;;;47.85;27.13;;;;;;;-5.21;100.00;91328.91;2092973;28;20035;-84
2022/12/14 03:39:33;;;;;;;53.47;25.90;;;;;;;-5.14;100.00;91314.06;2080274;28;20040;-83
2022/12/14 03:40:45;;;;;;;48.53;27.80;;;;;;;-5.02;100.00;91327.91;2083850;28;20021;-85
2022/12/14 03:42:01;;;;;;;47.15;27.02;;;;;;;-5.12;100.00;91316.31;2083613;28;20885;-83
2022/12/14 03:43:34;;;;;;;50.95;27.48;;;;;;;-5.09;100.00;91324.16;2076231;28;20068;-85
2022/12/14 03:44:53;;;;;;;43.72;25.50;;;;;;;-5.09;100.00;91316.34;2071503;28;20463;-84
2022/12/14 03:46:02;;;;;;;48.10;27.35;;;;;;;-5.10;100.00;91308.88;2087119;28;20136;-84
2022/12/14 03:47:16;;;;;;;49.13;27.17;;;;;;;-5.04;100.00;91311.91;2081771;28;20033;-85
2022/12/14 03:48:29;;;;;;;45.15;26.38;;;;;;;-5.04;100.00;91306.72;2075312;28;20044;-85
2022/12/14 03:50:01;;;;;;;48.70;27.55;;;;;;;-5.04;100.00;91311.91;2075479;28;20462;-84
2022/12/14 03:51:27;;;;;;;48.13;25.35;;;;;;;-5.01;100.00;91314.53;2086431;28;20460;-85
2022/12/14 03:53:05;;;;;;;47.33;25.58;;;;;;;-5.10;100.00;91303.69;2077023;28;20029;-85
2022/12/14 03:54:51;;;;;;;43.55;23.85;;;;;;;-5.09;100.00;91303.34;2088764;28;20021;-84
2022/12/14 03:56:01;;;;;;;47.83;25.40;;;;;;;-4.96;100.00;91303.00;2056232;28;20031;-85
2022/12/14 03:57:13;;;;;;;52.22;27.23;;;;;;;-5.04;100.00;91301.50;2071072;28;20095;-85
2022/12/14 03:58:33;;;;;;;46.25;26.35;;;;;;;-4.82;100.00;91292.69;2076844;28;20117;-84
2022/12/14 03:59:53;;;;;;;48.90;27.30;;;;;;;-4.89;100.00;91296.00;2078962;28;20988;-85
2022/12/14 04:01:08;;;;;;;51.42;28.33;;;;;;;-4.89;100.00;91300.47;2079078;28;20109;-84
2022/12/14 04:02:22;;;;;;;51.90;28.35;;;;;;;-5.06;100.00;91297.38;2090225;28;20017;-85
2022/12/14 04:04:17;;;;;;;51.95;28.30;;;;;;;-5.10;100.00;91299.22;2083640;28;20467;-86
2022/12/14 04:05:39;;;;;;;56.45;27.13;;;;;;;-5.14;100.00;91301.03;2057034;28;20065;-84
2022/12/14 04:06:58;;;;;;;49.40;27.23;;;;;;;-5.14;100.00;91300.28;2054807;28;20113;-84
2022/12/14 04:08:13;;;;;;;49.92;27.35;;;;;;;-5.16;100.00;91295.47;2084540;28;20022;-85
2022/12/14 04:09:42;;;;;;;51.38;27.65;;;;;;;-5.16;100.00;91295.47;2075687;28;20572;-85
2022/12/14 04:19:43;;;;;;;48.80;26.67;;;;;;;-5.22;100.00;91283.91;2093731;28;20111;-85
2022/12/14 04:20:50;;;;;;;53.88;29.50;;;;;;;-5.14;100.00;91279.47;2083053;28;20030;-86
2022/12/14 04:22:01;;;;;;;54.85;28.63;;;;;;;-5.18;100.00;91281.28;2082859;28;20108;-85
2022/12/14 04:23:10;;;;;;;55.53;29.33;;;;;;;-5.16;100.00;91273.88;2076175;28;20084;-84
2022/12/14 04:26:04;;;;;;;52.97;27.90;;;;;;;-5.20;100.00;91280.94;2094008;28;20031;-84
2022/12/14 04:27:19;;;;;;;54.97;29.63;;;;;;;-5.24;100.00;91274.94;2085048;28;20052;-85
2022/12/14 04:29:55;;;;;;;54.50;28.98;;;;;;;-5.21;100.00;91274.22;2081706;28;20090;-84
2022/12/14 04:31:01;;;;;;;49.60;27.10;;;;;;;-4.93;100.00;91282.19;2091741;28;20474;-85
2022/12/14 04:32:37;;;;;;;57.38;31.25;;;;;;;-4.96;100.00;91277.72;2082288;28;20441;-86
2022/12/14 04:33:45;;;;;;;54.53;28.50;;;;;;;-5.11;100.00;91270.94;2079447;28;20052;-85
2022/12/14 04:34:52;;;;;;;54.88;30.23;;;;;;;-5.07;100.00;91269.09;2082508;28;20150;-85
2022/12/14 04:35:56;;;;;;;53.97;29.88;;;;;;;-5.06;100.00;91270.59;2082266;28;20532;-85
2022/12/14 04:37:15;;;;;;;60.45;30.45;;;;;;;-4.92;100.00;91262.84;2082159;28;20501;-85
2022/12/14 04:38:21;;;;;;;54.85;29.80;;;;;;;-5.00;100.00;91266.53;2081538;28;20057;-85
2022/12/14 04:39:32;;;;;;;56.42;31.17;;;;;;;-5.01;100.00;91267.63;2074582;28;20124;-85
2022/12/14 04:40:39;;;;;;;61.95;29.80;;;;;;;-5.02;100.00;91262.78;2083062;28;20032;-85
2022/12/14 04:41:54;;;;;;;57.40;30.50;;;;;;;-5.01;100.00;91266.88;2075492;28;20037;-84
2022/12/14 04:43:00;;;;;;;53.42;30.02;;;;;;;-4.97;100.00;91262.44;2067617;28;20058;-85
2022/12/14 04:44:28;;;;;;;58.10;31.50;;;;;;;-5.11;100.00;91260.50;2066556;28;20308;-84
2022/12/14 04:45:38;;;;;;;57.45;32.80;;;;;;;-5.18;100.00;91257.84;2081040;28;20037;-84
2022/12/14 04:46:40;;;;;;;54.17;31.63;;;;;;;-5.13;100.00;91254.94;2074709;28;20028;-84
2022/12/14 04:47:49;;;;;;;52.58;30.67;;;;;;;-5.06;100.00;91258.31;2065581;28;20133;-85
2022/12/14 04:49:09;;;;;;;51.40;28.10;;;;;;;-5.01;100.00;91256.47;2074311;28;20018;-85
2022/12/14 04:50:22;;;;;;;53.88;30.10;;;;;;;-5.09;100.00;91253.84;2088558;28;20132;-85
2022/12/14 04:52:01;;;;;;;58.22;30.58;;;;;;;-4.95;100.00;91250.56;2098192;28;20150;-85
2022/12/14 04:53:14;;;;;;;49.83;27.92;;;;;;;-4.96;100.00;91243.09;2051814;28;20557;-84
2022/12/14 04:54:22;;;;;;;55.25;28.48;;;;;;;-4.99;100.00;91241.25;2084612;28;20018;-85
2022/12/14 04:55:33;;;;;;;56.75;31.08;;;;;;;-5.03;100.00;91248.28;2097701;28;20094;-84
2022/12/14 04:56:49;;;;;;;64.45;35.42;;;;;;;-5.09;100.00;91243.44;2082916;28;20494;-83
2022/12/14 04:58:19;;;;;;;62.28;30.90;;;;;;;-5.12;100.00;91241.53;2085652;28;20029;-85
2022/12/14 04:59:21;;;;;;;57.10;29.63;;;;;;;-5.13;100.00;91237.44;2085362;28;20033;-85
2022/12/14 05:00:22;;;;;;;56.47;29.98;;;;;;;-4.96;100.00;91236.06;2073263;28;20034;-84
2022/12/14 05:01:38;;;;;;;54.22;30.80;;;;;;;-4.97;100.00;91233.78;2073505;28;20021;-85
2022/12/14 05:03:16;;;;;;;58.70;31.83;;;;;;;-5.02;100.00;91236.75;2091803;28;20049;-85
2022/12/14 05:04:29;;;;;;;53.35;26.75;;;;;;;-4.94;100.00;91227.88;2086448;28;20025;-85
2022/12/14 05:06:03;;;;;;;59.88;31.85;;;;;;;-5.00;100.00;91227.47;2083105;28;20021;-85
2022/12/14 05:07:04;;;;;;;57.03;29.67;;;;;;;-5.03;100.00;91233.41;2082088;28;20032;-86
2022/12/14 05:08:34;;;;;;;61.15;31.15;;;;;;;-5.11;100.00;91235.22;2073373;28;20530;-86
2022/12/14 05:09:50;;;;;;;58.05;29.92;;;;;;;-5.07;100.00;91235.25;2076963;28;20076;-83
2022/12/14 05:11:05;;;;;;;57.10;30.73;;;;;;;-5.18;100.00;91231.81;2082178;28;20037;-85
2022/12/14 05:12:33;;;;;;;65.53;33.85;;;;;;;-5.20;100.00;91228.84;2091821;28;20398;-85
2022/12/14 05:13:44;;;;;;;62.85;29.63;;;;;;;-5.14;100.00;91235.19;2089602;28;20394;-85
2022/12/14 05:14:52;;;;;;;58.45;29.92;;;;;;;-5.18;100.00;91229.97;2089107;28;20447;-85
2022/12/14 05:15:57;;;;;;;61.88;30.75;;;;;;;-4.95;100.00;91224.50;2075679;28;20056;-85
2022/12/14 05:17:01;;;;;;;53.17;29.27;;;;;;;-5.01;100.00;91233.03;2074598;28;20029;-85
2022/12/14 05:18:04;;;;;;;59.80;30.98;;;;;;;-5.04;100.00;91231.16;2090454;28;20529;-84
2022/12/14 05:19:09;;;;;;;57.92;31.50;;;;;;;-5.10;100.00;91226.28;2097224;28;20024;-84
2022/12/14 05:20:22;;;;;;;58.33;30.80;;;;;;;-5.11;100.00;91224.78;2074547;28;20021;-84
2022/12/14 05:22:43;;;;;;;56.45;30.25;;;;;;;-5.07;100.00;91219.63;2091921;28;20032;-84
2022/12/14 05:23:44;;;;;;;58.45;30.77;;;;;;;-5.06;100.00;91221.09;2089553;28;20075;-84
2022/12/14 05:24:45;;;;;;;65.85;34.08;;;;;;;-5.13;100.00;91214.00;2097639;28;20074;-85
2022/12/14 05:25:46;;;;;;;60.50;32.25;;;;;;;-4.92;100.00;91212.59;2089619;28;20021;-85
2022/12/14 05:26:47;;;;;;;57.30;29.63;;;;;;;-4.76;100.00;91212.31;2072785;28;20419;-84